Terminal Aerodrome Forecast
Issued by NWS

Home | Current Version | Previous Version | Graphics & Text | Print | Product List | Glossary On
Versions: 1 2 3 4 5 6 7 8 9 10 11 12 13 14 15
000
FTUS43 KMPX 111100
TAFRWF
TAF
KRWF 111131Z 1112/1212 18010G18KT P6SM VCTS BKN035CB OVC070
      TEMPO 1112/1114 4SM -TSRA BR BKN018CB
     FM111600 19012KT P6SM VCSH BKN030 OVC060
     FM111900 22009KT P6SM SCT035 BKN060
      TEMPO 1121/1201 -TSRA BKN035CB
     FM120200 34005KT P6SM SCT250=

USA.gov is the U.S. government's official web portal to all federal, state and local government web resources and services.